Time;durP1;ratioP1;P1;durP2;ratioP2;P2;SDS_P1;SDS_P2;PMS_P1;PMS_P2;Temp;Humidity;BMP_temperature;BMP_pressure;BME280_temperature;BME280_humidity;BME280_pressure;Samples;Min_cycle;Max_cycle;Signal;HPM_P1;HPM_P2
2021/08/21 00:02:18;;;;;;;17.92;12.13;;;;;;;17.27;100.00;100928.31;5216345;28;20029;-78
2021/08/21 00:04:49;;;;;;;15.68;11.02;;;;;;;17.25;100.00;100927.56;5217468;28;20033;-77
2021/08/21 00:07:20;;;;;;;15.07;11.43;;;;;;;17.25;100.00;100924.91;5217136;28;20072;-77
2021/08/21 00:09:50;;;;;;;13.73;11.05;;;;;;;17.27;100.00;100923.03;5216458;28;20056;-78
2021/08/21 00:12:20;;;;;;;17.27;11.00;;;;;;;17.31;100.00;100921.06;5218740;28;20025;-78
2021/08/21 00:14:51;;;;;;;13.37;10.80;;;;;;;17.23;100.00;100920.66;5217884;28;20268;-77
2021/08/21 00:17:21;;;;;;;15.32;11.80;;;;;;;17.18;100.00;100915.63;5218318;28;20287;-77
2021/08/21 00:19:51;;;;;;;15.50;11.63;;;;;;;17.17;100.00;100913.06;5216296;28;20108;-76
2021/08/21 00:22:22;;;;;;;16.90;11.90;;;;;;;17.16;100.00;100924.59;5217441;28;20280;-78
2021/08/21 00:24:52;;;;;;;15.00;11.82;;;;;;;17.05;100.00;100921.69;5219310;28;20025;-77
2021/08/21 00:27:25;;;;;;;20.73;15.02;;;;;;;16.95;100.00;100920.53;5218490;28;20032;-78
2021/08/21 00:29:56;;;;;;;19.65;12.90;;;;;;;16.87;100.00;100917.44;5218852;28;20392;-78
2021/08/21 00:32:26;;;;;;;16.88;12.57;;;;;;;16.93;100.00;100917.09;5215086;28;20033;-78
2021/08/21 00:34:56;;;;;;;15.63;11.45;;;;;;;16.98;100.00;100915.91;5218904;28;20021;-78
2021/08/21 00:37:27;;;;;;;16.33;11.48;;;;;;;16.94;100.00;100922.28;5216025;28;20467;-78
2021/08/21 00:39:57;;;;;;;13.43;11.45;;;;;;;16.82;100.00;100919.50;5215572;28;20549;-78
2021/08/21 00:42:27;;;;;;;15.05;11.43;;;;;;;16.83;100.00;100921.19;5219009;28;20127;-78
2021/08/21 00:44:58;;;;;;;15.85;12.63;;;;;;;16.72;100.00;100920.94;5215090;28;20060;-77
2021/08/21 00:47:29;;;;;;;13.45;11.65;;;;;;;16.74;100.00;100921.69;5214155;28;20479;-77
2021/08/21 00:49:59;;;;;;;17.00;12.30;;;;;;;16.77;100.00;100916.25;5216489;28;20086;-78
2021/08/21 00:52:34;;;;;;;15.02;11.88;;;;;;;16.72;100.00;100918.28;5217211;28;20364;-77
2021/08/21 00:55:05;;;;;;;15.00;12.10;;;;;;;16.77;100.00;100928.59;5215800;28;20470;-77
2021/08/21 00:57:35;;;;;;;14.93;11.20;;;;;;;16.74;100.00;100920.84;5217689;28;20078;-78
2021/08/21 01:00:07;;;;;;;14.13;11.48;;;;;;;16.68;100.00;100916.75;5218355;28;20642;-76
2021/08/21 01:02:39;;;;;;;16.13;11.90;;;;;;;16.61;100.00;100918.03;5218448;28;20471;-77
2021/08/21 01:05:14;;;;;;;13.60;11.57;;;;;;;16.68;100.00;100918.53;5218447;28;20029;-77
2021/08/21 01:07:44;;;;;;;14.80;10.88;;;;;;;16.68;100.00;100922.03;5216539;28;20028;-78
2021/08/21 01:10:19;;;;;;;16.08;12.73;;;;;;;16.64;100.00;100909.94;5216014;28;20052;-78
2021/08/21 01:12:50;;;;;;;19.25;12.40;;;;;;;16.61;100.00;100909.25;5215360;28;20458;-77
2021/08/21 01:15:23;;;;;;;18.05;12.52;;;;;;;16.59;100.00;100903.22;5215715;28;20036;-78
2021/08/21 01:17:54;;;;;;;16.27;11.73;;;;;;;16.60;100.00;100908.44;5215986;28;20035;-78
2021/08/21 01:20:29;;;;;;;19.27;12.30;;;;;;;16.55;100.00;100913.09;5212460;28;20025;-77
2021/08/21 01:23:04;;;;;;;16.17;13.18;;;;;;;16.57;100.00;100907.72;5217234;28;20479;-78
2021/08/21 01:25:35;;;;;;;17.90;12.38;;;;;;;16.57;100.00;100913.84;5216894;28;20033;-78
2021/08/21 01:28:05;;;;;;;16.52;12.43;;;;;;;16.64;100.00;100914.38;5214580;28;20105;-77
2021/08/21 01:30:35;;;;;;;16.75;12.55;;;;;;;16.68;100.00;100922.03;5216739;28;20025;-78
2021/08/21 01:33:06;;;;;;;14.77;11.38;;;;;;;16.69;100.00;100912.34;5213115;28;20033;-76
2021/08/21 01:35:36;;;;;;;15.20;11.90;;;;;;;16.69;100.00;100913.19;5215955;28;20043;-78
2021/08/21 01:38:06;;;;;;;18.80;12.75;;;;;;;16.67;100.00;100915.06;5212778;28;20632;-77
2021/08/21 01:40:36;;;;;;;20.77;13.68;;;;;;;16.63;100.00;100918.81;5214094;28;20029;-78
2021/08/21 01:43:07;;;;;;;19.35;14.38;;;;;;;16.75;100.00;100906.72;5213308;28;20120;-77
2021/08/21 01:45:37;;;;;;;18.70;13.02;;;;;;;16.81;100.00;100908.06;5216044;28;20029;-78
2021/08/21 01:48:07;;;;;;;17.38;12.43;;;;;;;16.72;100.00;100905.09;5214935;28;20078;-77
2021/08/21 01:50:38;;;;;;;15.65;11.85;;;;;;;16.75;100.00;100912.84;5213269;28;20041;-78
2021/08/21 01:53:16;;;;;;;18.58;13.15;;;;;;;16.71;100.00;100915.75;5215660;28;20498;-78
2021/08/21 01:55:47;;;;;;;16.83;13.52;;;;;;;16.65;100.00;100916.94;5214600;28;20438;-77
2021/08/21 01:58:22;;;;;;;17.77;12.20;;;;;;;16.67;100.00;100909.78;5213490;28;20124;-76
2021/08/21 02:00:52;;;;;;;17.70;12.67;;;;;;;16.71;100.00;100921.88;5214978;28;20032;-76
2021/08/21 02:03:22;;;;;;;19.05;12.85;;;;;;;16.65;100.00;100910.78;5213865;28;20029;-78
2021/08/21 02:05:52;;;;;;;15.53;12.17;;;;;;;16.59;100.00;100919.88;5219408;28;20071;-78
2021/08/21 02:08:23;;;;;;;15.15;12.40;;;;;;;16.60;100.00;100915.47;5217244;28;20279;-77
2021/08/21 02:10:53;;;;;;;16.63;12.40;;;;;;;16.55;100.00;100918.34;5217132;28;20729;-77
2021/08/21 02:13:23;;;;;;;17.10;12.38;;;;;;;16.53;100.00;100927.31;5220000;28;20350;-77
2021/08/21 02:15:53;;;;;;;13.77;10.88;;;;;;;16.58;100.00;100935.81;5218044;28;20108;-78
2021/08/21 02:18:24;;;;;;;15.48;11.65;;;;;;;16.54;100.00;100929.03;5219106;28;20027;-77
2021/08/21 02:20:54;;;;;;;14.97;12.63;;;;;;;16.51;100.00;100930.03;5218139;28;20025;-76
2021/08/21 02:23:26;;;;;;;13.65;10.80;;;;;;;16.58;100.00;100934.03;5217551;28;20278;-77
2021/08/21 02:25:57;;;;;;;15.48;11.43;;;;;;;16.59;100.00;100933.09;5221657;28;20070;-77
2021/08/21 02:28:27;;;;;;;14.82;11.18;;;;;;;16.67;100.00;100938.81;5217811;28;20383;-78
2021/08/21 02:30:57;;;;;;;15.65;11.13;;;;;;;16.58;100.00;100931.38;5220629;28;20051;-78
2021/08/21 02:33:27;;;;;;;17.13;11.48;;;;;;;16.50;100.00;100927.44;5218291;28;20116;-77
2021/08/21 02:35:59;;;;;;;14.70;11.85;;;;;;;16.47;100.00;100928.50;5220544;28;20024;-78
2021/08/21 02:38:29;;;;;;;17.48;11.43;;;;;;;16.52;100.00;100930.88;5216809;28;20499;-78
2021/08/21 02:40:59;;;;;;;20.17;16.33;;;;;;;16.45;100.00;100924.22;5218864;28;20025;-78
2021/08/21 02:43:29;;;;;;;41.65;29.58;;;;;;;16.43;100.00;100920.81;5221161;28;20630;-77
2021/08/21 02:46:00;;;;;;;20.15;15.27;;;;;;;16.35;100.00;100926.50;5218230;28;20065;-78
2021/08/21 02:48:30;;;;;;;15.63;12.18;;;;;;;16.48;100.00;100922.28;5216920;28;20039;-78
2021/08/21 02:51:01;;;;;;;17.40;11.90;;;;;;;16.44;100.00;100926.03;5221317;28;20287;-78
2021/08/21 02:53:31;;;;;;;18.17;11.57;;;;;;;16.44;100.00;100933.94;5218211;28;20044;-77
2021/08/21 02:56:01;;;;;;;13.68;11.60;;;;;;;16.41;100.00;100936.72;5221563;28;20108;-77
2021/08/21 02:58:32;;;;;;;18.98;11.77;;;;;;;16.39;100.00;100937.75;5216887;28;20037;-77
2021/08/21 03:01:02;;;;;;;13.38;10.65;;;;;;;16.44;100.00;100944.50;5218506;28;20410;-78
2021/08/21 03:03:33;;;;;;;20.10;13.20;;;;;;;16.41;100.00;100949.06;5217672;28;20029;-78
2021/08/21 03:06:03;;;;;;;18.52;11.50;;;;;;;16.39;100.00;100935.13;5221387;28;20039;-77
2021/08/21 03:08:33;;;;;;;16.77;12.18;;;;;;;16.33;100.00;100946.81;5217325;28;20510;-77
2021/08/21 03:11:03;;;;;;;14.48;10.90;;;;;;;16.32;100.00;100937.19;5218591;28;20106;-78
2021/08/21 03:13:34;;;;;;;13.98;11.05;;;;;;;16.45;100.00;100929.50;5220534;28;20041;-78
2021/08/21 03:16:04;;;;;;;13.23;10.88;;;;;;;16.51;100.00;100935.28;5215430;28;20438;-78
2021/08/21 03:18:34;;;;;;;16.90;11.43;;;;;;;16.39;100.00;100941.22;5216467;28;20084;-77
2021/08/21 03:21:05;;;;;;;18.48;11.50;;;;;;;16.24;100.00;100931.44;5217679;28;20017;-77
2021/08/21 03:23:38;;;;;;;14.68;11.43;;;;;;;16.24;100.00;100935.88;5215684;28;20033;-77
2021/08/21 03:26:09;;;;;;;12.85;10.35;;;;;;;16.33;100.00;100932.75;5218120;28;20029;-78
2021/08/21 03:28:40;;;;;;;13.32;10.55;;;;;;;16.36;100.00;100945.84;5214671;28;20021;-77
2021/08/21 03:31:10;;;;;;;15.98;12.80;;;;;;;16.28;100.00;100942.69;5217064;28;20028;-78
2021/08/21 03:33:42;;;;;;;17.75;12.85;;;;;;;16.16;100.00;100943.34;5216523;28;20041;-76
2021/08/21 03:36:12;;;;;;;15.07;11.93;;;;;;;16.25;100.00;100940.22;5219349;28;20377;-77
2021/08/21 03:38:44;;;;;;;18.05;13.98;;;;;;;16.15;100.00;100946.91;5218737;28;20064;-78
2021/08/21 03:41:14;;;;;;;15.63;12.85;;;;;;;16.18;100.00;100944.97;5218191;28;20430;-78
2021/08/21 03:43:45;;;;;;;16.98;14.05;;;;;;;16.22;100.00;100937.75;5220393;28;20186;-78
2021/08/21 03:46:15;;;;;;;17.13;13.40;;;;;;;16.25;100.00;100935.78;5217949;28;20396;-77
2021/08/21 03:48:45;;;;;;;15.35;12.82;;;;;;;16.26;100.00;100948.06;5219350;28;20033;-78
2021/08/21 03:51:15;;;;;;;16.48;14.13;;;;;;;16.19;100.00;100949.31;5217409;28;20029;-78
2021/08/21 03:53:46;;;;;;;20.23;16.20;;;;;;;16.09;100.00;100947.25;5219873;28;20108;-77
2021/08/21 03:56:16;;;;;;;17.92;13.90;;;;;;;15.85;100.00;100952.00;5219705;28;20046;-78
2021/08/21 03:58:47;;;;;;;19.15;14.35;;;;;;;15.59;100.00;100954.22;5218963;28;20463;-77
2021/08/21 04:01:17;;;;;;;19.33;14.52;;;;;;;15.45;100.00;100954.06;5218848;28;20040;-80
2021/08/21 04:03:47;;;;;;;17.92;13.95;;;;;;;15.41;100.00;100958.66;5218888;28;20036;-77
2021/08/21 04:06:19;;;;;;;16.50;13.52;;;;;;;15.46;100.00;100951.38;5217927;28;20044;-78
2021/08/21 04:08:49;;;;;;;17.63;13.45;;;;;;;15.34;100.00;100956.38;5215504;28;20025;-78
2021/08/21 04:11:20;;;;;;;17.80;14.20;;;;;;;15.26;100.00;100959.38;5217054;28;20497;-78
2021/08/21 04:13:50;;;;;;;21.08;13.40;;;;;;;15.21;100.00;100958.72;5218411;28;20037;-78
2021/08/21 04:16:20;;;;;;;18.85;13.07;;;;;;;15.21;100.00;100961.34;5218918;28;20025;-78
2021/08/21 04:18:50;;;;;;;14.68;11.90;;;;;;;15.33;100.00;100950.25;5218053;28;20037;-77
2021/08/21 04:21:21;;;;;;;15.90;11.93;;;;;;;15.35;100.00;100958.94;5215612;28;20052;-77
2021/08/21 04:23:53;;;;;;;14.57;11.93;;;;;;;15.34;100.00;100959.03;5216134;28;20479;-77
2021/08/21 04:26:23;;;;;;;13.65;10.25;;;;;;;15.18;100.00;100961.50;5214166;28;20276;-78
2021/08/21 04:28:53;;;;;;;13.02;9.65;;;;;;;15.14;100.00;100962.56;5215556;28;20082;-78
2021/08/21 04:31:24;;;;;;;17.83;10.73;;;;;;;15.34;100.00;100967.75;5214907;28;20309;-78
2021/08/21 04:33:54;;;;;;;13.80;10.93;;;;;;;15.37;100.00;100967.59;5206975;28;20026;-77
2021/08/21 04:36:24;;;;;;;14.70;10.57;;;;;;;15.38;100.00;100969.31;5215029;28;20035;-77
2021/08/21 04:38:54;;;;;;;11.85;9.27;;;;;;;15.50;100.00;100974.00;5212410;28;20032;-77
2021/08/21 04:41:25;;;;;;;13.70;9.98;;;;;;;15.56;100.00;100963.13;5218640;28;20020;-78
2021/08/21 04:43:55;;;;;;;13.13;10.20;;;;;;;15.79;100.00;100976.03;5217374;28;20053;-77
2021/08/21 04:46:26;;;;;;;13.35;10.60;;;;;;;15.61;100.00;100978.72;5219235;28;20079;-78
2021/08/21 04:48:56;;;;;;;10.95;9.70;;;;;;;15.60;100.00;100977.88;5223937;28;20071;-77
2021/08/21 04:51:26;;;;;;;14.95;9.50;;;;;;;15.52;100.00;100982.66;5219503;28;20672;-78
2021/08/21 04:53:56;;;;;;;10.02;8.75;;;;;;;15.67;100.00;100984.53;5214321;28;20108;-78
2021/08/21 04:56:27;;;;;;;10.35;7.93;;;;;;;15.56;100.00;100978.09;5216847;28;20375;-78
2021/08/21 04:58:59;;;;;;;9.50;7.68;;;;;;;15.93;100.00;100983.22;5218786;28;20029;-78
2021/08/21 05:01:29;;;;;;;8.48;5.97;;;;;;;16.07;100.00;100980.75;5216068;28;20030;-78
2021/08/21 05:03:59;;;;;;;6.32;5.53;;;;;;;16.19;100.00;100985.41;5219114;28;20028;-77
2021/08/21 05:06:29;;;;;;;5.32;4.47;;;;;;;16.22;100.00;100988.72;5215632;28;20031;-78
2021/08/21 05:09:00;;;;;;;4.82;3.92;;;;;;;15.96;100.00;100991.84;5217636;28;20025;-78
2021/08/21 05:11:30;;;;;;;4.03;3.63;;;;;;;16.26;100.00;100990.28;5215025;28;20041;-77
2021/08/21 05:14:00;;;;;;;5.93;4.40;;;;;;;16.56;100.00;100993.13;5219492;28;20271;-78
2021/08/21 05:16:31;;;;;;;5.13;4.53;;;;;;;16.58;100.00;100994.72;5216580;28;20033;-77
2021/08/21 05:19:07;;;;;;;4.72;4.22;;;;;;;17.18;100.00;100991.38;5212872;28;20033;-78
2021/08/21 05:21:47;;;;;;;5.50;4.18;;;;;;;17.84;100.00;100992.84;5214777;28;20467;-78
2021/08/21 05:24:17;;;;;;;6.97;4.75;;;;;;;17.73;100.00;100989.97;5216518;28;20068;-78
2021/08/21 05:26:48;;;;;;;10.65;5.22;;;;;;;17.80;100.00;100991.34;5216013;28;20109;-78
2021/08/21 05:29:18;;;;;;;6.60;5.75;;;;;;;18.30;100.00;100986.53;5215709;28;20029;-78
2021/08/21 05:31:50;;;;;;;6.80;5.85;;;;;;;19.12;97.06;100990.09;5214328;28;20037;-77
2021/08/21 05:34:20;;;;;;;9.57;7.00;;;;;;;19.00;96.79;100985.59;5214043;28;20466;-78
2021/08/21 05:36:50;;;;;;;9.13;7.05;;;;;;;19.17;96.83;100981.91;5212594;28;20043;-78
2021/08/21 05:39:20;;;;;;;7.82;6.88;;;;;;;19.12;95.83;100984.78;5215921;28;20737;-78
2021/08/21 05:41:51;;;;;;;7.95;6.10;;;;;;;19.85;96.38;100984.38;5218497;28;20074;-77
2021/08/21 05:44:21;;;;;;;7.93;6.55;;;;;;;20.31;90.11;100990.09;5236503;22;20071;-78
2021/08/21 05:46:52;;;;;;;8.50;6.47;;;;;;;21.34;87.16;100996.75;5232240;28;20519;-78
2021/08/21 05:49:22;;;;;;;10.57;7.13;;;;;;;21.54;83.72;100992.66;5224455;28;20301;-78
2021/08/21 05:51:52;;;;;;;8.73;7.00;;;;;;;21.90;84.79;100996.09;5229014;28;20031;-78
2021/08/21 05:54:22;;;;;;;8.83;7.00;;;;;;;21.72;84.62;100996.63;5220781;28;20052;-77
2021/08/21 05:56:53;;;;;;;8.15;6.30;;;;;;;20.74;89.97;101005.59;5211988;28;20272;-76
2021/08/21 05:59:24;;;;;;;7.78;6.88;;;;;;;19.52;97.23;101006.97;5210381;28;20025;-76
2021/08/21 06:01:54;;;;;;;10.82;8.18;;;;;;;18.46;100.00;101005.84;5211357;28;20044;-76
2021/08/21 06:04:25;;;;;;;10.50;8.30;;;;;;;18.10;100.00;101006.25;5209474;28;20026;-76
2021/08/21 06:06:55;;;;;;;9.43;8.43;;;;;;;18.45;100.00;101006.78;5215015;28;20766;-76
2021/08/21 06:09:25;;;;;;;14.40;9.82;;;;;;;18.73;100.00;101007.69;5214009;28;20322;-76
2021/08/21 06:11:55;;;;;;;11.60;9.47;;;;;;;18.31;100.00;101007.63;5209332;28;20025;-76
2021/08/21 06:14:26;;;;;;;10.80;8.90;;;;;;;18.42;100.00;101006.97;5211836;28;20953;-76
2021/08/21 06:16:56;;;;;;;12.25;9.00;;;;;;;18.33;100.00;101004.91;5211932;28;20622;-76
2021/08/21 06:19:26;;;;;;;13.50;10.20;;;;;;;18.14;100.00;100999.81;5207742;28;20029;-76
2021/08/21 06:21:56;;;;;;;13.80;9.80;;;;;;;18.69;100.00;101002.66;5211047;28;20280;-76
2021/08/21 06:24:27;;;;;;;11.32;8.43;;;;;;;18.82;100.00;101007.97;5213024;28;20291;-78
2021/08/21 06:26:57;;;;;;;14.52;10.15;;;;;;;18.66;100.00;101008.97;5213161;28;20021;-78
2021/08/21 06:29:34;;;;;;;11.25;9.60;;;;;;;19.03;100.00;101014.53;5213404;28;20037;-78
2021/08/21 06:32:05;;;;;;;12.32;10.55;;;;;;;19.26;100.00;101008.66;5209687;28;20060;-78
2021/08/21 06:34:36;;;;;;;11.70;9.93;;;;;;;20.33;97.21;101010.25;5209181;28;20037;-78
2021/08/21 06:37:06;;;;;;;12.70;9.30;;;;;;;20.90;92.66;101006.25;5211435;28;20032;-78
2021/08/21 06:39:37;;;;;;;13.13;9.45;;;;;;;20.68;93.98;101020.16;5211532;28;20616;-78
2021/08/21 06:42:07;;;;;;;9.50;7.28;;;;;;;21.93;90.55;101011.81;5210255;28;20390;-78
2021/08/21 06:44:37;;;;;;;8.00;6.37;;;;;;;23.25;83.17;101001.38;5213698;28;20521;-77
2021/08/21 06:47:08;;;;;;;8.97;7.40;;;;;;;23.46;80.04;101004.94;5210644;28;20295;-77
2021/08/21 06:49:38;;;;;;;9.45;7.30;;;;;;;23.41;82.54;101001.81;5207808;28;20286;-77
2021/08/21 06:52:08;;;;;;;10.93;6.97;;;;;;;23.61;79.44;101011.69;5214375;28;20137;-77
2021/08/21 06:54:38;;;;;;;8.63;6.95;;;;;;;25.23;75.03;101006.47;5215274;28;20279;-77
2021/08/21 06:57:09;;;;;;;9.97;7.40;;;;;;;23.82;78.94;101010.81;5213149;28;20029;-77
2021/08/21 06:59:39;;;;;;;8.23;6.63;;;;;;;25.06;76.71;101007.06;5214894;28;20282;-77
2021/08/21 07:02:09;;;;;;;9.53;7.90;;;;;;;26.25;70.04;101005.00;5213556;28;20024;-77
2021/08/21 07:04:41;;;;;;;7.47;6.33;;;;;;;27.50;68.08;101005.25;5214427;28;20425;-77
2021/08/21 07:07:11;;;;;;;8.95;6.82;;;;;;;26.39;68.60;101004.56;5213277;28;20032;-77
2021/08/21 07:09:41;;;;;;;10.00;7.90;;;;;;;24.87;75.30;101020.38;5214287;28;20544;-77
2021/08/21 07:12:11;;;;;;;8.33;7.30;;;;;;;27.07;68.60;100997.00;5215098;28;20029;-77
2021/08/21 07:14:41;;;;;;;8.50;7.50;;;;;;;27.13;67.25;100994.56;5212139;28;20086;-77
2021/08/21 07:17:14;;;;;;;10.17;7.60;;;;;;;26.83;67.95;101002.91;5214616;28;20280;-77
2021/08/21 07:19:44;;;;;;;10.45;7.32;;;;;;;28.28;64.21;101002.66;5211280;28;20061;-77
2021/08/21 07:22:14;;;;;;;11.03;7.70;;;;;;;28.61;63.64;101002.72;5214971;28;20491;-77
2021/08/21 07:24:45;;;;;;;11.60;7.78;;;;;;;28.20;64.80;101003.44;5213827;28;20273;-77
2021/08/21 07:27:15;;;;;;;9.10;6.63;;;;;;;28.74;63.28;101008.53;5213545;28;20044;-77
2021/08/21 07:29:45;;;;;;;8.63;6.63;;;;;;;29.33;62.34;101003.09;5212123;28;20290;-77
2021/08/21 07:32:15;;;;;;;9.53;7.70;;;;;;;28.03;64.40;101014.19;5210652;28;20021;-77
2021/08/21 07:34:46;;;;;;;9.57;7.20;;;;;;;27.46;66.99;100999.31;5214725;28;20495;-77
2021/08/21 07:37:16;;;;;;;10.85;7.78;;;;;;;27.84;66.97;101008.97;5213245;28;20028;-77
2021/08/21 07:39:46;;;;;;;9.03;7.47;;;;;;;28.59;64.07;101012.81;5210936;28;20060;-77
2021/08/21 07:42:17;;;;;;;9.87;7.40;;;;;;;27.60;68.48;101022.97;5210662;28;21049;-77
2021/08/21 07:44:47;;;;;;;10.10;7.57;;;;;;;29.30;60.72;101015.06;5212052;28;20611;-77
2021/08/21 07:47:18;;;;;;;8.15;7.35;;;;;;;29.56;62.28;101017.69;5209105;28;20029;-77
2021/08/21 07:49:48;;;;;;;10.83;8.03;;;;;;;29.65;62.46;101008.59;5209794;28;20109;-78
2021/08/21 07:52:18;;;;;;;9.55;7.78;;;;;;;29.76;62.60;101005.59;5204343;28;20296;-78
2021/08/21 07:54:49;;;;;;;11.47;8.30;;;;;;;29.74;61.35;101013.84;5203119;28;20021;-77
2021/08/21 07:57:19;;;;;;;8.80;7.85;;;;;;;30.17;60.03;101020.81;5210940;28;20283;-77
2021/08/21 07:59:50;;;;;;;10.47;8.83;;;;;;;29.96;60.36;101012.34;5212296;28;20033;-77
2021/08/21 08:02:20;;;;;;;12.23;8.45;;;;;;;29.80;61.21;101017.72;5209071;28;20029;-77
2021/08/21 08:04:50;;;;;;;12.07;8.83;;;;;;;29.72;61.93;101025.81;5209491;28;20024;-78
2021/08/21 08:07:20;;;;;;;14.80;9.50;;;;;;;30.43;58.65;101024.19;5208049;28;20299;-78
2021/08/21 08:09:51;;;;;;;12.17;9.67;;;;;;;28.62;62.54;101022.44;5210097;28;20399;-77
2021/08/21 08:12:22;;;;;;;8.98;8.07;;;;;;;28.10;65.04;101024.19;5211042;28;20283;-78
2021/08/21 08:14:52;;;;;;;10.50;8.93;;;;;;;29.68;61.53;101011.81;5209020;28;20025;-77
2021/08/21 08:17:24;;;;;;;12.77;10.07;;;;;;;31.14;57.75;101021.34;5209101;28;20086;-80
2021/08/21 08:19:54;;;;;;;15.65;11.75;;;;;;;29.10;61.06;101013.59;5208465;28;20025;-77
2021/08/21 08:22:26;;;;;;;15.07;11.27;;;;;;;28.41;65.09;101014.72;5205119;28;20031;-76
2021/08/21 08:24:56;;;;;;;16.23;13.13;;;;;;;29.63;59.46;101011.47;5204734;28;20029;-77
2021/08/21 08:27:27;;;;;;;21.17;13.73;;;;;;;29.94;58.77;101012.50;5211913;28;20037;-77
2021/08/21 08:29:57;;;;;;;20.67;14.93;;;;;;;29.61;58.31;101018.03;5207910;28;20283;-76
2021/08/21 08:32:27;;;;;;;18.27;13.80;;;;;;;30.76;57.16;101007.75;5212697;28;20041;-77
2021/08/21 08:34:58;;;;;;;19.13;13.93;;;;;;;29.43;60.77;101019.97;5211630;28;20399;-77
2021/08/21 08:37:28;;;;;;;23.00;16.88;;;;;;;27.45;63.38;101023.66;5210802;28;20321;-77
2021/08/21 08:39:58;;;;;;;16.33;13.20;;;;;;;29.54;60.51;101014.31;5211375;28;20021;-77
2021/08/21 08:42:30;;;;;;;21.83;15.50;;;;;;;28.73;60.75;101019.44;5212081;28;20358;-77
2021/08/21 08:45:02;;;;;;;17.42;13.93;;;;;;;29.07;62.16;101022.00;5206841;28;20282;-77
2021/08/21 08:47:35;;;;;;;17.67;13.80;;;;;;;29.88;59.91;101025.84;5210661;28;20044;-77
2021/08/21 08:50:10;;;;;;;17.88;13.32;;;;;;;30.22;59.60;101019.28;5208171;28;20409;-77
2021/08/21 08:52:40;;;;;;;19.70;13.90;;;;;;;31.24;57.04;101023.84;5208087;28;20051;-77
2021/08/21 08:55:12;;;;;;;11.68;9.30;;;;;;;30.78;58.23;101026.50;5210551;28;20580;-77
2021/08/21 08:57:44;;;;;;;24.35;15.20;;;;;;;31.64;58.80;101023.59;5209344;28;20051;-77
2021/08/21 09:00:17;;;;;;;14.73;10.13;;;;;;;30.61;59.96;101028.38;5208931;28;20048;-77
2021/08/21 09:02:51;;;;;;;13.75;9.55;;;;;;;31.16;57.74;101026.59;5208912;28;20102;-77
2021/08/21 09:05:23;;;;;;;15.30;11.95;;;;;;;30.49;59.09;101031.59;5208245;28;20037;-77
2021/08/21 09:07:56;;;;;;;16.17;12.57;;;;;;;29.77;59.68;101026.97;5210041;28;20490;-77
2021/08/21 09:10:31;;;;;;;15.20;11.50;;;;;;;28.96;62.35;101035.78;5211613;28;20045;-77
2021/08/21 09:13:06;;;;;;;21.08;12.40;;;;;;;29.04;62.81;101040.38;5204751;28;20397;-77
2021/08/21 09:15:50;;;;;;;13.65;10.90;;;;;;;27.98;63.92;101038.00;5209933;28;20106;-77
2021/08/21 09:18:23;;;;;;;10.88;8.98;;;;;;;30.04;59.88;101031.25;5208930;28;20112;-77
2021/08/21 09:21:02;;;;;;;13.27;10.35;;;;;;;30.87;58.42;101027.13;5208925;28;20426;-77
2021/08/21 09:23:41;;;;;;;14.27;11.20;;;;;;;31.85;55.58;101023.84;5206579;28;20037;-77
2021/08/21 09:26:17;;;;;;;14.82;12.40;;;;;;;28.16;64.17;101036.16;5208008;28;20039;-77
2021/08/21 09:28:51;;;;;;;15.48;10.90;;;;;;;27.25;65.46;101039.03;5206991;28;20037;-77
2021/08/21 09:31:22;;;;;;;16.02;12.48;;;;;;;26.49;68.47;101032.25;5202164;28;20424;-77
2021/08/21 09:34:06;;;;;;;16.90;12.25;;;;;;;26.25;66.89;101023.75;5204351;28;20045;-77
2021/08/21 09:36:38;;;;;;;15.05;12.00;;;;;;;25.72;70.18;101031.38;5213809;28;20021;-77
2021/08/21 09:39:11;;;;;;;15.70;13.45;;;;;;;24.58;74.75;101035.41;5211710;28;20036;-77
2021/08/21 09:41:59;;;;;;;19.80;13.73;;;;;;;25.14;72.97;101029.50;5209957;28;20387;-77
2021/08/21 09:44:34;;;;;;;15.05;12.00;;;;;;;25.25;73.32;101020.53;5212876;28;20677;-78
2021/08/21 09:47:25;;;;;;;14.70;11.75;;;;;;;25.12;74.83;101019.94;5216812;28;20029;-78
2021/08/21 09:50:14;;;;;;;16.13;11.82;;;;;;;25.68;71.31;101015.72;5208794;28;20039;-78
2021/08/21 09:52:46;;;;;;;15.85;12.15;;;;;;;25.09;72.86;101015.69;5210511;28;20391;-77
2021/08/21 09:55:20;;;;;;;13.55;10.18;;;;;;;25.81;70.79;101017.13;5208135;28;20047;-78
2021/08/21 09:58:17;;;;;;;14.23;11.02;;;;;;;26.07;70.55;101010.25;5208609;28;20029;-77
2021/08/21 10:00:48;;;;;;;15.10;12.07;;;;;;;25.59;71.88;101013.84;5201827;28;20107;-78
2021/08/21 10:03:18;;;;;;;14.82;11.18;;;;;;;25.19;73.01;101011.25;5201863;28;20025;-78
2021/08/21 10:05:49;;;;;;;14.48;10.55;;;;;;;25.88;71.06;101015.63;5208362;28;20664;-78
2021/08/21 10:08:25;;;;;;;14.32;10.38;;;;;;;25.79;70.87;101010.19;5211723;28;20029;-78
2021/08/21 10:10:58;;;;;;;13.07;8.70;;;;;;;26.01;69.91;100999.25;5213196;28;20033;-78
2021/08/21 10:13:32;;;;;;;13.52;9.43;;;;;;;25.46;71.06;100999.91;5207167;28;20438;-79
2021/08/21 10:16:11;;;;;;;13.32;10.13;;;;;;;25.48;69.68;101011.31;5208890;28;20725;-78
2021/08/21 10:18:42;;;;;;;12.10;9.50;;;;;;;25.48;72.43;101008.66;5211179;28;20033;-78
2021/08/21 10:21:13;;;;;;;12.00;9.02;;;;;;;24.89;72.02;101005.91;5205429;28;20039;-78
2021/08/21 10:23:48;;;;;;;15.65;10.40;;;;;;;24.75;72.34;101010.75;5210489;28;20077;-78
2021/08/21 10:26:31;;;;;;;13.35;9.30;;;;;;;24.55;73.29;101003.59;5198316;28;20407;-77
2021/08/21 10:29:09;;;;;;;12.05;9.00;;;;;;;25.14;71.77;101001.91;5210404;28;20041;-78
2021/08/21 10:31:48;;;;;;;11.40;7.90;;;;;;;25.28;70.97;100993.53;5219300;28;20533;-77
2021/08/21 10:34:19;;;;;;;12.32;8.05;;;;;;;25.73;72.70;100997.38;5215175;28;20100;-78
2021/08/21 10:36:57;;;;;;;11.45;7.35;;;;;;;25.84;69.67;100997.25;5206453;28;20179;-79
2021/08/21 10:39:30;;;;;;;11.55;7.97;;;;;;;25.74;71.68;100993.72;5204760;28;20026;-78
2021/08/21 10:42:21;;;;;;;10.80;8.18;;;;;;;25.94;68.29;100998.13;5208567;28;20495;-78
2021/08/21 10:44:53;;;;;;;10.75;7.85;;;;;;;25.08;69.59;101003.28;5208466;28;20117;-78
2021/08/21 10:47:44;;;;;;;9.10;6.20;;;;;;;25.59;68.97;100997.78;5211706;28;20083;-78
2021/08/21 10:50:14;;;;;;;10.30;7.13;;;;;;;25.43;68.06;100997.47;5208024;28;20052;-78
2021/08/21 10:52:45;;;;;;;9.33;6.73;;;;;;;25.83;69.13;100987.53;5208292;28;20041;-78
2021/08/21 10:55:40;;;;;;;11.57;6.43;;;;;;;25.76;69.62;100994.41;5216032;28;20086;-78
2021/08/21 10:58:12;;;;;;;11.88;7.68;;;;;;;24.71;70.05;101001.31;5204946;28;20526;-80
2021/08/21 11:01:02;;;;;;;10.00;6.78;;;;;;;24.76;69.57;100991.91;5212976;28;20592;-78
2021/08/21 11:03:33;;;;;;;7.72;6.32;;;;;;;24.80;71.96;100989.81;5206480;28;20112;-78
2021/08/21 11:06:10;;;;;;;13.33;6.73;;;;;;;24.58;72.83;100995.31;5205326;28;20491;-78
2021/08/21 11:08:40;;;;;;;8.75;6.47;;;;;;;25.00;72.52;100984.38;5214116;28;20108;-77
2021/08/21 11:14:07;;;;;;;10.37;6.63;;;;;;;24.71;70.64;100984.44;5216521;28;20514;-78
2021/08/21 11:16:50;;;;;;;7.75;5.50;;;;;;;25.08;70.89;100983.69;5219750;28;20494;-78
2021/08/21 11:19:32;;;;;;;11.25;6.82;;;;;;;25.61;68.16;100980.59;5210112;28;20517;-77
2021/08/21 11:22:27;;;;;;;9.15;6.18;;;;;;;25.90;68.44;100981.50;5210093;28;20037;-77
2021/08/21 11:25:00;;;;;;;8.65;5.40;;;;;;;25.72;69.56;100972.44;5206965;28;20026;-78
2021/08/21 11:27:36;;;;;;;7.00;5.22;;;;;;;25.60;70.26;100975.38;5205390;28;20073;-77
2021/08/21 11:30:13;;;;;;;6.75;5.30;;;;;;;25.83;71.13;100966.09;5212411;28;20482;-79
2021/08/21 11:33:02;;;;;;;8.55;6.25;;;;;;;25.61;69.44;100964.53;5213400;28;20037;-77
2021/08/21 11:35:45;;;;;;;8.95;5.82;;;;;;;26.01;68.90;100962.56;5208863;28;20118;-77